createdAt,value
2023-07-20T00:00:14.570Z,81.40
2023-07-20T00:00:24.058Z,81.80
2023-07-20T00:00:33.607Z,81.80
2023-07-20T00:00:43.065Z,82.00
2023-07-20T00:00:52.519Z,82.10
2023-07-20T00:01:01.959Z,82.00
2023-07-20T00:01:20.918Z,82.10
2023-07-20T00:01:30.348Z,82.20
2023-07-20T00:01:39.779Z,82.30
2023-07-20T00:01:49.253Z,82.50
2023-07-20T00:01:58.752Z,82.70
2023-07-20T00:02:08.230Z,82.80
2023-07-20T00:02:27.095Z,82.80
2023-07-20T00:02:36.533Z,82.90
2023-07-20T00:02:45.936Z,83.00
2023-07-20T00:02:55.370Z,83.20
2023-07-20T00:03:04.808Z,83.20
2023-07-20T00:03:14.195Z,83.20
2023-07-20T00:03:33.327Z,83.50
2023-07-20T00:03:42.807Z,83.60
2023-07-20T00:03:52.253Z,83.90
2023-07-20T00:04:01.685Z,84.10
2023-07-20T00:04:11.161Z,84.20
2023-07-20T00:04:20.561Z,84.30
2023-07-20T00:04:39.357Z,84.30
2023-07-20T00:04:48.745Z,84.50
2023-07-20T00:04:58.171Z,84.80
2023-07-20T00:05:07.597Z,84.70
2023-07-20T00:05:17.028Z,84.80
2023-07-20T00:05:26.527Z,84.90
2023-07-20T00:05:45.607Z,85.30
2023-07-20T00:05:54.892Z,85.50
2023-07-20T00:06:04.391Z,85.50
2023-07-20T00:06:13.835Z,85.60
2023-07-20T00:06:23.510Z,85.80
2023-07-20T00:06:32.717Z,85.90
2023-07-20T00:06:51.624Z,86.00
2023-07-20T00:07:01.231Z,86.00
2023-07-20T00:07:10.709Z,86.30
2023-07-20T00:07:20.127Z,86.30
2023-07-20T00:07:29.625Z,86.50
2023-07-20T00:07:39.097Z,86.50
2023-07-20T00:07:57.999Z,86.70
2023-07-20T00:08:07.434Z,86.80
2023-07-20T00:08:16.887Z,87.00
2023-07-20T00:08:26.344Z,87.00
2023-07-20T00:08:35.776Z,87.20
2023-07-20T00:08:45.277Z,87.20
2023-07-20T00:09:04.108Z,87.40
2023-07-20T00:09:13.561Z,87.40
2023-07-20T00:09:22.971Z,87.60
2023-07-20T00:09:32.393Z,87.70
2023-07-20T00:09:41.833Z,87.80
2023-07-20T00:09:51.283Z,87.90
2023-07-20T00:10:10.751Z,88.30
2023-07-20T00:10:20.187Z,88.30
2023-07-20T00:10:29.699Z,88.50
2023-07-20T00:10:39.108Z,88.50
2023-07-20T00:10:48.633Z,88.60
2023-07-20T00:10:58.072Z,88.70
2023-07-20T00:11:16.927Z,88.90
2023-07-20T00:11:26.377Z,89.00
2023-07-20T00:11:35.810Z,89.10
2023-07-20T00:11:45.282Z,89.10
2023-07-20T00:11:54.713Z,89.10
2023-07-20T00:12:04.135Z,89.10
2023-07-20T00:12:22.988Z,89.00
2023-07-20T00:12:32.412Z,88.90
2023-07-20T00:12:41.957Z,88.90
2023-07-20T00:12:51.355Z,88.70
2023-07-20T00:13:00.779Z,88.60
2023-07-20T00:13:10.297Z,88.50
2023-07-20T00:13:29.184Z,88.30
2023-07-20T00:13:39.827Z,88.10
2023-07-20T00:13:49.390Z,88.00
2023-07-20T00:13:58.814Z,87.80
2023-07-20T00:14:08.293Z,87.70
2023-07-20T00:14:17.715Z,87.50
2023-07-20T00:14:36.663Z,87.20
2023-07-20T00:14:46.097Z,86.90
2023-07-20T00:14:55.578Z,86.80
2023-07-20T00:15:05.105Z,86.40
2023-07-20T00:15:14.585Z,86.40
2023-07-20T00:15:24.009Z,86.20
2023-07-20T00:15:42.968Z,86.00
2023-07-20T00:15:52.395Z,85.80
2023-07-20T00:16:01.852Z,85.70
2023-07-20T00:16:11.358Z,85.50
2023-07-20T00:16:21.268Z,85.40
2023-07-20T00:16:30.260Z,85.40
2023-07-20T00:16:49.153Z,85.20
2023-07-20T00:16:58.604Z,85.20
2023-07-20T00:17:08.097Z,85.20
2023-07-20T00:17:17.461Z,85.10
2023-07-20T00:17:26.923Z,85.20
2023-07-20T00:17:36.361Z,85.20
2023-07-20T00:17:55.357Z,85.30
2023-07-20T00:19:02.760Z,85.60
2023-07-20T00:20:10.067Z,86.20
2023-07-20T00:21:22.472Z,86.80
2023-07-20T00:22:29.966Z,87.00
2023-07-20T00:23:44.200Z,87.40
2023-07-20T00:25:44.202Z,88.10
2023-07-20T00:27:59.281Z,89.10
2023-07-20T00:28:08.733Z,89.00
2023-07-20T00:28:18.199Z,89.20
2023-07-20T00:28:27.633Z,89.30
2023-07-20T00:28:37.070Z,89.40
2023-07-20T00:28:46.574Z,89.40
2023-07-20T00:29:05.437Z,89.50
2023-07-20T00:29:14.891Z,89.40
2023-07-20T00:29:24.304Z,89.50
2023-07-20T00:29:33.713Z,89.60
2023-07-20T00:29:43.170Z,89.60
2023-07-20T00:29:52.654Z,89.60
2023-07-20T00:30:11.545Z,90.00
2023-07-20T00:30:21.081Z,89.90
2023-07-20T00:30:30.459Z,89.80
2023-07-20T00:30:39.883Z,89.80
2023-07-20T00:30:49.377Z,89.80
2023-07-20T00:30:58.729Z,89.80
2023-07-20T00:31:17.697Z,90.00
2023-07-20T00:31:27.082Z,90.00
2023-07-20T00:31:36.544Z,89.80
2023-07-20T00:31:46.888Z,89.90
2023-07-20T00:31:55.439Z,89.80
2023-07-20T00:32:04.918Z,90.10
2023-07-20T00:32:23.850Z,90.10
2023-07-20T00:32:33.283Z,90.10
2023-07-20T00:32:42.680Z,90.10
2023-07-20T00:32:52.154Z,90.10
2023-07-20T00:33:01.604Z,90.20
2023-07-20T00:33:11.021Z,90.20
2023-07-20T00:33:29.865Z,90.30
2023-07-20T00:33:39.311Z,90.40
2023-07-20T00:33:48.743Z,90.40
2023-07-20T00:33:58.163Z,90.40
2023-07-20T00:34:07.610Z,90.40
2023-07-20T00:34:17.063Z,90.40
2023-07-20T00:34:35.977Z,90.50
2023-07-20T00:34:45.487Z,90.70
2023-07-20T00:34:54.916Z,90.80
2023-07-20T00:35:04.336Z,90.70
2023-07-20T00:35:13.806Z,90.80
2023-07-20T00:35:23.240Z,90.80
2023-07-20T00:35:42.092Z,90.90
2023-07-20T00:35:51.552Z,90.90
2023-07-20T00:36:00.991Z,90.80
2023-07-20T00:36:10.426Z,90.90
2023-07-20T00:36:20.110Z,90.90
2023-07-20T00:36:29.344Z,90.90
2023-07-20T00:36:48.242Z,91.10
2023-07-20T00:36:57.669Z,91.20
2023-07-20T00:37:07.082Z,91.30
2023-07-20T00:37:16.582Z,91.40
2023-07-20T00:37:25.996Z,91.40
2023-07-20T00:37:35.446Z,91.40
2023-07-20T00:37:54.500Z,91.50
2023-07-20T00:38:03.893Z,91.60
2023-07-20T00:38:13.281Z,91.70
2023-07-20T00:38:22.704Z,91.70
2023-07-20T00:38:32.223Z,91.70
2023-07-20T00:38:41.650Z,91.70
2023-07-20T00:39:00.548Z,91.70
2023-07-20T00:39:09.965Z,91.70
2023-07-20T00:39:19.936Z,91.70
2023-07-20T00:39:29.513Z,91.70
2023-07-20T00:39:38.909Z,91.80
2023-07-20T00:39:48.350Z,91.80
2023-07-20T00:40:07.163Z,92.00
2023-07-20T00:40:16.700Z,92.00
2023-07-20T00:40:26.111Z,92.20
2023-07-20T00:40:35.525Z,92.20
2023-07-20T00:40:45.122Z,92.20
2023-07-20T00:40:54.748Z,92.30
2023-07-20T00:41:13.762Z,92.20
2023-07-20T00:41:23.193Z,92.20
2023-07-20T00:41:32.630Z,92.20
2023-07-20T00:41:42.077Z,92.20
2023-07-20T00:41:51.485Z,92.10
2023-07-20T00:42:00.902Z,92.10
2023-07-20T00:42:20.026Z,92.00
2023-07-20T00:42:29.514Z,91.90
2023-07-20T00:42:38.941Z,91.80
2023-07-20T00:42:48.449Z,91.70
2023-07-20T00:42:57.861Z,91.60
2023-07-20T00:43:07.283Z,91.50
2023-07-20T00:43:26.124Z,91.30
2023-07-20T00:43:35.552Z,91.30
2023-07-20T00:43:45.001Z,91.10
2023-07-20T00:43:54.432Z,91.00
2023-07-20T00:44:03.850Z,90.90
2023-07-20T00:44:13.260Z,90.80
2023-07-20T00:44:32.117Z,90.50
2023-07-20T00:44:41.514Z,90.40
2023-07-20T00:44:50.939Z,90.30
2023-07-20T00:45:00.403Z,90.30
2023-07-20T00:45:09.791Z,90.20
2023-07-20T00:45:19.283Z,90.10
2023-07-20T00:45:38.191Z,89.80
2023-07-20T00:45:47.619Z,89.30
2023-07-20T00:45:57.090Z,89.20
2023-07-20T00:46:06.586Z,88.80
2023-07-20T00:46:16.097Z,88.50
2023-07-20T00:46:26.088Z,88.30
2023-07-20T00:46:44.496Z,87.90
2023-07-20T00:46:53.987Z,87.70
2023-07-20T00:47:03.332Z,87.60
2023-07-20T00:47:12.744Z,87.50
2023-07-20T00:47:22.170Z,87.20
2023-07-20T00:47:31.649Z,87.10
2023-07-20T00:47:50.489Z,86.60
2023-07-20T00:47:59.865Z,86.50
2023-07-20T00:48:09.351Z,86.30
2023-07-20T00:48:18.663Z,86.00
2023-07-20T00:48:28.093Z,85.90
2023-07-20T00:48:37.523Z,85.80
2023-07-20T00:48:56.364Z,85.50
2023-07-20T00:49:05.790Z,85.40
2023-07-20T00:49:15.210Z,85.30
2023-07-20T00:49:24.636Z,85.10
2023-07-20T00:49:34.056Z,85.00
2023-07-20T00:49:43.453Z,84.80
2023-07-20T00:50:02.286Z,84.50
2023-07-20T00:50:11.726Z,84.40
2023-07-20T00:50:21.139Z,84.00
2023-07-20T00:50:30.560Z,84.00
2023-07-20T00:50:39.978Z,84.00
2023-07-20T00:50:49.417Z,83.80
2023-07-20T00:51:08.271Z,83.50
2023-07-20T00:51:17.711Z,83.40
2023-07-20T00:51:27.152Z,83.30
2023-07-20T00:51:36.611Z,83.20
2023-07-20T00:51:46.018Z,83.10
2023-07-20T00:51:55.454Z,83.10
2023-07-20T00:52:14.355Z,83.00
2023-07-20T00:52:23.777Z,83.00
2023-07-20T00:52:33.246Z,82.90
2023-07-20T00:52:42.654Z,82.90
2023-07-20T00:52:52.066Z,82.80
2023-07-20T00:53:02.083Z,82.70
2023-07-20T00:53:21.098Z,82.50
2023-07-20T00:53:30.637Z,82.50
2023-07-20T00:53:40.064Z,82.40
2023-07-20T00:53:49.493Z,82.30
2023-07-20T00:53:58.924Z,82.20
2023-07-20T00:54:08.342Z,82.00
2023-07-20T00:54:27.358Z,82.00
2023-07-20T00:54:37.863Z,81.90
2023-07-20T00:54:47.301Z,81.80
2023-07-20T00:54:56.734Z,81.60
2023-07-20T00:55:06.161Z,81.40
2023-07-20T00:55:15.552Z,81.30
2023-07-20T00:55:34.442Z,81.10
2023-07-20T00:55:43.870Z,81.10
2023-07-20T00:55:53.277Z,81.20
2023-07-20T00:56:02.739Z,81.10
2023-07-20T00:56:12.187Z,81.00
2023-07-20T00:56:21.891Z,80.90
2023-07-20T00:56:40.543Z,80.70
2023-07-20T00:56:49.955Z,80.60
2023-07-20T00:56:59.365Z,80.60
2023-07-20T00:57:08.793Z,80.60
2023-07-20T00:57:18.215Z,80.50
2023-07-20T00:57:27.652Z,80.50
2023-07-20T00:57:46.541Z,80.60
2023-07-20T00:57:56.007Z,80.50
2023-07-20T00:58:05.432Z,80.70
2023-07-20T00:58:14.881Z,80.80
2023-07-20T00:58:24.310Z,80.80
2023-07-20T00:58:33.713Z,80.90
2023-07-20T00:58:52.665Z,81.10
2023-07-20T00:59:02.078Z,81.20
2023-07-20T00:59:11.520Z,81.40
2023-07-20T00:59:20.945Z,81.70
2023-07-20T00:59:30.375Z,81.80
2023-07-20T00:59:39.798Z,82.10
2023-07-20T00:59:58.736Z,82.50
2023-07-20T01:00:08.156Z,82.70
2023-07-20T01:00:17.599Z,82.90
2023-07-20T01:00:27.017Z,83.20
2023-07-20T01:00:36.554Z,83.30
2023-07-20T01:00:46.005Z,83.60
2023-07-20T01:01:05.087Z,84.10
2023-07-20T01:01:14.332Z,84.40
2023-07-20T01:01:23.747Z,84.50
2023-07-20T01:01:33.196Z,84.80
2023-07-20T01:01:42.614Z,85.10
2023-07-20T01:01:52.028Z,85.20
2023-07-20T01:02:10.924Z,85.70
2023-07-20T01:02:20.308Z,86.00
2023-07-20T01:02:29.814Z,86.10
2023-07-20T01:02:39.263Z,86.40
2023-07-20T01:02:48.720Z,86.90
2023-07-20T01:02:58.129Z,87.20
2023-07-20T01:03:17.054Z,87.70
2023-07-20T01:03:26.564Z,87.90
2023-07-20T01:03:36.044Z,88.20
2023-07-20T01:03:45.457Z,88.30
2023-07-20T01:03:54.897Z,88.50
2023-07-20T01:04:04.419Z,88.90
2023-07-20T01:04:23.118Z,89.50
2023-07-20T01:04:32.560Z,89.70
2023-07-20T01:04:42.014Z,89.90
2023-07-20T01:04:51.439Z,90.00
2023-07-20T01:05:00.860Z,90.20
2023-07-20T01:05:10.281Z,90.20
2023-07-20T01:05:29.117Z,90.40
2023-07-20T01:05:38.584Z,90.60
2023-07-20T01:05:48.003Z,90.80
2023-07-20T01:05:57.490Z,90.80
2023-07-20T01:06:06.961Z,91.00
2023-07-20T01:06:16.430Z,91.00
2023-07-20T01:06:35.327Z,91.20
2023-07-20T01:06:45.108Z,91.20
2023-07-20T01:06:54.547Z,91.30
2023-07-20T01:07:04.017Z,91.40
2023-07-20T01:07:13.437Z,91.50
2023-07-20T01:07:22.866Z,91.60
2023-07-20T01:07:41.693Z,91.70
2023-07-20T01:07:51.124Z,91.80
2023-07-20T01:08:00.604Z,91.80
2023-07-20T01:08:10.581Z,91.80
2023-07-20T01:08:21.310Z,91.80
2023-07-20T01:08:30.717Z,91.90
2023-07-20T01:08:49.563Z,92.20
2023-07-20T01:08:59.028Z,92.20
2023-07-20T01:09:08.518Z,92.30
2023-07-20T01:09:17.969Z,92.30
2023-07-20T01:09:27.395Z,92.40
2023-07-20T01:09:36.791Z,92.50
2023-07-20T01:09:55.629Z,92.60
2023-07-20T01:10:05.078Z,92.50
2023-07-20T01:10:14.548Z,92.50
2023-07-20T01:10:23.959Z,92.50
2023-07-20T01:10:33.383Z,92.50
2023-07-20T01:10:42.811Z,92.50
2023-07-20T01:11:01.651Z,92.40
2023-07-20T01:11:11.109Z,92.30
2023-07-20T01:11:20.487Z,92.20
2023-07-20T01:11:29.975Z,92.10
2023-07-20T01:11:39.382Z,92.00
2023-07-20T01:11:48.798Z,92.00
2023-07-20T01:12:07.632Z,91.80
2023-07-20T01:12:17.051Z,91.70
2023-07-20T01:12:26.542Z,91.70
2023-07-20T01:12:35.963Z,91.60
2023-07-20T01:12:45.363Z,91.50
2023-07-20T01:12:54.772Z,91.40
2023-07-20T01:13:13.616Z,91.30
2023-07-20T01:13:23.076Z,91.20
2023-07-20T01:13:32.412Z,91.20
2023-07-20T01:13:41.806Z,91.10
2023-07-20T01:13:51.234Z,91.00
2023-07-20T01:14:00.632Z,90.90
2023-07-20T01:14:19.472Z,90.80
2023-07-20T01:14:28.874Z,90.70
2023-07-20T01:14:38.325Z,90.60
2023-07-20T01:14:47.696Z,90.50
2023-07-20T01:14:57.149Z,90.40
2023-07-20T01:15:06.545Z,90.40
2023-07-20T01:15:25.367Z,90.20
2023-07-20T01:15:34.758Z,90.10
2023-07-20T01:15:44.170Z,90.00
2023-07-20T01:15:53.597Z,90.00
2023-07-20T01:16:03.066Z,89.80
2023-07-20T01:16:12.487Z,89.70
2023-07-20T01:16:31.362Z,89.40
2023-07-20T01:16:40.726Z,89.50
2023-07-20T01:16:50.213Z,89.40
2023-07-20T01:16:59.591Z,89.20
2023-07-20T01:17:08.890Z,89.00
2023-07-20T01:17:18.312Z,88.90
2023-07-20T01:17:37.212Z,88.60
2023-07-20T01:17:46.550Z,88.50
2023-07-20T01:17:55.967Z,88.20
2023-07-20T01:18:05.421Z,88.00
2023-07-20T01:18:14.746Z,87.90
2023-07-20T01:18:24.136Z,87.80
2023-07-20T01:18:43.039Z,87.50
2023-07-20T01:18:52.472Z,87.50
2023-07-20T01:19:01.874Z,87.40
2023-07-20T01:19:11.276Z,87.30
2023-07-20T01:19:20.746Z,87.00
2023-07-20T01:19:30.195Z,86.80
2023-07-20T01:19:48.969Z,86.70
2023-07-20T01:19:58.371Z,86.60
2023-07-20T01:20:07.771Z,86.40
2023-07-20T01:20:17.696Z,86.30
2023-07-20T01:20:27.110Z,86.10
2023-07-20T01:20:36.605Z,86.00
2023-07-20T01:20:55.507Z,85.80
2023-07-20T01:21:04.916Z,85.70
2023-07-20T01:21:14.343Z,85.50
2023-07-20T01:21:23.756Z,85.40
2023-07-20T01:21:33.215Z,85.30
2023-07-20T01:21:42.631Z,85.30
2023-07-20T01:22:01.517Z,85.20
2023-07-20T01:22:10.950Z,85.30
2023-07-20T01:22:20.340Z,85.20
2023-07-20T01:22:29.775Z,85.20
2023-07-20T01:22:39.282Z,85.20
2023-07-20T01:22:48.861Z,85.20
2023-07-20T01:23:07.804Z,85.10
2023-07-20T01:23:17.170Z,85.10
2023-07-20T01:23:26.731Z,85.10
2023-07-20T01:23:36.217Z,85.00
2023-07-20T01:23:45.571Z,85.00
2023-07-20T01:23:55.016Z,85.00
2023-07-20T01:24:13.795Z,85.00
2023-07-20T01:24:23.173Z,85.00
2023-07-20T01:24:32.591Z,84.90
2023-07-20T01:24:41.970Z,84.90
2023-07-20T01:24:51.380Z,84.80
2023-07-20T01:25:00.775Z,84.70
2023-07-20T01:25:19.595Z,84.60
2023-07-20T01:25:29.021Z,84.60
2023-07-20T01:25:38.413Z,84.60
2023-07-20T01:25:47.815Z,84.50
2023-07-20T01:25:57.224Z,84.50
2023-07-20T01:26:06.609Z,84.50
2023-07-20T01:26:25.455Z,84.40
2023-07-20T01:26:34.847Z,84.40
2023-07-20T01:26:44.267Z,84.30
2023-07-20T01:26:53.655Z,84.30
2023-07-20T01:27:03.051Z,84.20
2023-07-20T01:27:12.448Z,84.20
2023-07-20T01:27:31.418Z,84.20
2023-07-20T01:27:40.829Z,84.20
2023-07-20T01:27:50.224Z,84.20
2023-07-20T01:27:59.633Z,84.10
2023-07-20T01:28:09.058Z,84.00
2023-07-20T01:28:18.513Z,84.00
2023-07-20T01:28:37.345Z,83.90
2023-07-20T01:28:46.757Z,83.90
2023-07-20T01:28:56.195Z,83.90
2023-07-20T01:29:05.608Z,83.70
2023-07-20T01:29:15.007Z,83.70
2023-07-20T01:29:24.398Z,83.60
2023-07-20T01:29:43.200Z,83.60
2023-07-20T01:29:52.670Z,83.60
2023-07-20T01:30:02.104Z,83.60
2023-07-20T01:30:11.503Z,83.50
2023-07-20T01:30:20.907Z,83.60
2023-07-20T01:30:30.394Z,83.50
2023-07-20T01:30:49.323Z,83.50
2023-07-20T01:30:58.722Z,83.60
2023-07-20T01:31:08.174Z,83.50
2023-07-20T01:31:17.703Z,83.50
2023-07-20T01:31:27.124Z,83.40
2023-07-20T01:31:36.613Z,83.30
2023-07-20T01:31:55.432Z,83.20
2023-07-20T01:32:04.809Z,83.20
2023-07-20T01:32:14.248Z,83.20
2023-07-20T01:32:23.685Z,83.20
2023-07-20T01:32:33.080Z,83.10
2023-07-20T01:32:42.533Z,83.10
2023-07-20T01:33:01.429Z,83.20
2023-07-20T01:33:10.817Z,83.20
2023-07-20T01:33:20.219Z,83.20
2023-07-20T01:33:29.640Z,83.20
2023-07-20T01:33:39.064Z,83.20
2023-07-20T01:33:48.511Z,83.10
2023-07-20T01:34:07.273Z,83.10
2023-07-20T01:34:16.674Z,83.10
2023-07-20T01:34:26.129Z,83.20
2023-07-20T01:34:35.510Z,83.10
2023-07-20T01:34:44.902Z,83.00
2023-07-20T01:34:54.310Z,83.00
2023-07-20T01:35:13.134Z,82.90
2023-07-20T01:35:22.539Z,82.90
2023-07-20T01:35:31.980Z,82.90
2023-07-20T01:35:41.414Z,82.90
2023-07-20T01:35:50.866Z,82.80
2023-07-20T01:36:00.288Z,82.80
2023-07-20T01:36:19.184Z,82.80
2023-07-20T01:36:28.606Z,82.70
2023-07-20T01:36:38.046Z,82.70
2023-07-20T01:36:47.468Z,82.70
2023-07-20T01:36:56.899Z,82.70
2023-07-20T01:37:06.305Z,82.70
2023-07-20T01:37:25.153Z,82.70
2023-07-20T01:37:34.560Z,82.60
2023-07-20T01:37:43.961Z,82.70
2023-07-20T01:37:53.378Z,82.60
2023-07-20T01:38:02.765Z,82.70
2023-07-20T01:38:12.164Z,82.70
2023-07-20T01:38:30.971Z,82.70
2023-07-20T01:38:40.363Z,82.70
2023-07-20T01:38:49.741Z,82.70
2023-07-20T01:38:59.150Z,82.70
2023-07-20T01:39:08.531Z,82.70
2023-07-20T01:39:17.939Z,82.80
2023-07-20T01:39:36.742Z,82.80
2023-07-20T01:39:46.154Z,82.80
2023-07-20T01:39:55.554Z,82.70
2023-07-20T01:40:04.963Z,82.80
2023-07-20T01:40:14.375Z,82.70
2023-07-20T01:40:23.807Z,82.70
2023-07-20T01:40:42.698Z,82.80
2023-07-20T01:40:52.112Z,82.80
2023-07-20T01:41:01.525Z,82.80
2023-07-20T01:41:10.937Z,82.80
2023-07-20T01:41:20.374Z,82.90
2023-07-20T01:41:29.745Z,82.90
2023-07-20T01:41:48.680Z,82.90
2023-07-20T01:41:58.079Z,82.90
2023-07-20T01:42:07.475Z,83.00
2023-07-20T01:42:16.888Z,83.10
2023-07-20T01:42:26.307Z,83.20
2023-07-20T01:42:35.756Z,83.30
2023-07-20T01:42:54.580Z,83.70
2023-07-20T01:43:04.002Z,83.70
2023-07-20T01:43:13.410Z,83.90
2023-07-20T01:43:22.838Z,84.00
2023-07-20T01:43:32.270Z,84.30
2023-07-20T01:43:41.658Z,84.40
2023-07-20T01:44:00.479Z,85.00
2023-07-20T01:44:09.878Z,85.10
2023-07-20T01:44:19.292Z,85.30
2023-07-20T01:44:28.717Z,85.50
2023-07-20T01:44:38.112Z,85.70
2023-07-20T01:44:47.541Z,86.00
2023-07-20T01:45:06.412Z,86.70
2023-07-20T01:45:15.813Z,86.70
2023-07-20T01:45:25.209Z,87.00
2023-07-20T01:45:34.711Z,87.10
2023-07-20T01:45:44.067Z,87.40
2023-07-20T01:45:53.474Z,87.60
2023-07-20T01:46:12.318Z,88.30
2023-07-20T01:46:21.919Z,88.60
2023-07-20T01:46:31.214Z,88.70
2023-07-20T01:46:40.550Z,89.00
2023-07-20T01:46:49.968Z,89.10
2023-07-20T01:46:59.384Z,89.50
2023-07-20T01:47:18.403Z,90.00
2023-07-20T01:47:27.816Z,90.20
2023-07-20T01:47:37.230Z,90.30
2023-07-20T01:47:46.620Z,90.50
2023-07-20T01:47:56.073Z,90.60
2023-07-20T01:48:05.586Z,90.80
2023-07-20T01:48:24.428Z,90.90
2023-07-20T01:48:33.934Z,91.10
2023-07-20T01:48:43.244Z,91.20
2023-07-20T01:48:52.749Z,91.20
2023-07-20T01:49:02.081Z,91.30
2023-07-20T01:49:11.483Z,91.50
2023-07-20T01:49:30.619Z,91.50
2023-07-20T01:49:40.026Z,91.60
2023-07-20T01:49:49.444Z,91.50
2023-07-20T01:49:58.849Z,91.60
2023-07-20T01:50:08.289Z,91.60
2023-07-20T01:50:17.657Z,91.60
2023-07-20T01:50:36.524Z,91.40
2023-07-20T01:50:45.948Z,91.30
2023-07-20T01:50:55.353Z,91.30
2023-07-20T01:51:04.747Z,91.20
2023-07-20T01:51:14.119Z,91.20
2023-07-20T01:51:23.538Z,91.10
2023-07-20T01:51:42.345Z,91.00
2023-07-20T01:51:51.766Z,91.00
2023-07-20T01:52:01.123Z,91.00
2023-07-20T01:52:10.529Z,90.90
2023-07-20T01:52:19.924Z,90.80
2023-07-20T01:52:29.343Z,90.70
2023-07-20T01:52:48.185Z,90.60
2023-07-20T01:52:57.598Z,90.50
2023-07-20T01:53:06.998Z,90.50
2023-07-20T01:53:16.449Z,90.40
2023-07-20T01:53:25.830Z,90.50
2023-07-20T01:53:35.291Z,90.40
2023-07-20T01:53:54.090Z,90.20
2023-07-20T01:54:03.461Z,90.10
2023-07-20T01:54:12.876Z,90.10
2023-07-20T01:54:22.519Z,90.00
2023-07-20T01:54:31.930Z,89.80
2023-07-20T01:54:41.384Z,89.60
2023-07-20T01:55:00.187Z,89.30
2023-07-20T01:55:09.641Z,89.30
2023-07-20T01:55:19.044Z,89.20
2023-07-20T01:55:28.455Z,89.10
2023-07-20T01:55:37.876Z,89.00
2023-07-20T01:55:47.280Z,88.80
2023-07-20T01:56:06.117Z,88.50
2023-07-20T01:56:15.531Z,88.50
2023-07-20T01:56:25.276Z,88.40
2023-07-20T01:56:34.357Z,88.30
2023-07-20T01:56:43.758Z,88.20
2023-07-20T01:56:53.239Z,88.20
2023-07-20T01:57:12.096Z,88.00
2023-07-20T01:57:21.520Z,87.90
2023-07-20T01:57:30.920Z,87.80
2023-07-20T01:57:40.368Z,87.70
2023-07-20T01:57:49.772Z,87.60
2023-07-20T01:57:59.215Z,87.50
2023-07-20T01:58:18.013Z,87.40
2023-07-20T01:58:27.419Z,87.30
2023-07-20T01:58:36.832Z,87.20
2023-07-20T01:58:46.209Z,87.10
2023-07-20T01:58:55.794Z,87.10
2023-07-20T01:59:05.204Z,87.10
2023-07-20T01:59:24.041Z,87.00
2023-07-20T01:59:33.467Z,86.90
2023-07-20T01:59:43.128Z,86.80
2023-07-20T01:59:52.540Z,86.80
2023-07-20T02:00:01.941Z,86.70
2023-07-20T02:00:11.388Z,86.70
2023-07-20T02:00:30.274Z,86.60
2023-07-20T02:00:39.681Z,86.60
2023-07-20T02:00:49.077Z,86.50
2023-07-20T02:00:58.544Z,86.50
2023-07-20T02:01:07.929Z,86.50
2023-07-20T02:01:17.325Z,86.40
2023-07-20T02:01:36.261Z,86.30
2023-07-20T02:01:45.875Z,86.20
2023-07-20T02:01:55.223Z,86.20
2023-07-20T02:02:04.632Z,86.10
2023-07-20T02:02:14.050Z,86.00
2023-07-20T02:02:23.562Z,86.00
2023-07-20T02:02:42.409Z,85.80
2023-07-20T02:03:19.226Z,85.80
2023-07-20T02:03:28.635Z,85.60
2023-07-20T02:03:38.088Z,85.80
2023-07-20T02:03:47.520Z,85.70
2023-07-20T02:03:56.937Z,85.80
2023-07-20T02:04:06.402Z,85.80
2023-07-20T02:04:25.243Z,85.80
2023-07-20T02:04:34.650Z,85.70
2023-07-20T02:04:44.053Z,85.70
2023-07-20T02:04:53.489Z,85.60
2023-07-20T02:05:02.885Z,85.60
2023-07-20T02:05:12.293Z,85.50
2023-07-20T02:05:31.150Z,85.60
2023-07-20T02:05:40.583Z,85.60
2023-07-20T02:05:49.997Z,85.80
2023-07-20T02:05:59.443Z,85.90
2023-07-20T02:06:08.882Z,85.90
2023-07-20T02:06:18.334Z,85.80
2023-07-20T02:06:37.137Z,86.10
2023-07-20T02:06:46.582Z,86.20
2023-07-20T02:06:55.972Z,86.40
2023-07-20T02:07:05.375Z,86.50
2023-07-20T02:07:14.823Z,86.60
2023-07-20T02:07:24.200Z,86.70
2023-07-20T02:07:43.009Z,87.20
2023-07-20T02:07:52.407Z,87.40
2023-07-20T02:08:01.835Z,87.80
2023-07-20T02:08:11.287Z,87.90
2023-07-20T02:08:20.709Z,88.20
2023-07-20T02:08:30.138Z,88.50
2023-07-20T02:08:49.044Z,89.20
2023-07-20T02:08:58.450Z,89.50
2023-07-20T02:09:07.853Z,89.90
2023-07-20T02:09:17.287Z,90.00
2023-07-20T02:09:26.723Z,90.00
2023-07-20T02:09:36.135Z,90.20
2023-07-20T02:09:55.068Z,90.50
2023-07-20T02:10:04.501Z,90.60
2023-07-20T02:10:13.903Z,90.70
2023-07-20T02:10:23.342Z,90.70
2023-07-20T02:10:32.755Z,90.80
2023-07-20T02:10:42.213Z,90.90
2023-07-20T02:11:01.018Z,91.30
2023-07-20T02:11:10.441Z,91.40
2023-07-20T02:11:19.849Z,91.50
2023-07-20T02:11:29.261Z,91.70
2023-07-20T02:11:38.620Z,91.90
2023-07-20T02:11:48.031Z,92.00
2023-07-20T02:12:06.844Z,92.40
2023-07-20T02:12:16.284Z,92.60
2023-07-20T02:12:25.674Z,92.60
2023-07-20T02:12:35.124Z,92.80
2023-07-20T02:12:44.576Z,93.00
2023-07-20T02:12:53.991Z,93.00
2023-07-20T02:13:12.861Z,93.20
2023-07-20T02:13:22.287Z,93.20
2023-07-20T02:13:31.787Z,93.30
2023-07-20T02:13:41.212Z,93.50
2023-07-20T02:13:50.605Z,93.50
2023-07-20T02:14:00.015Z,93.50
2023-07-20T02:14:18.813Z,93.40
2023-07-20T02:14:28.233Z,93.50
2023-07-20T02:14:37.642Z,93.50
2023-07-20T02:14:47.087Z,93.50
2023-07-20T02:14:56.525Z,93.40
2023-07-20T02:15:05.938Z,93.30
2023-07-20T02:15:24.760Z,93.00
2023-07-20T02:15:34.158Z,92.90
2023-07-20T02:15:43.754Z,92.80
2023-07-20T02:15:53.101Z,92.70
2023-07-20T02:16:02.678Z,92.60
2023-07-20T02:16:12.194Z,92.50
2023-07-20T02:16:30.990Z,92.30
2023-07-20T02:16:40.629Z,92.20
2023-07-20T02:16:50.017Z,92.10
2023-07-20T02:16:59.523Z,92.00
2023-07-20T02:17:09.003Z,91.90
2023-07-20T02:17:18.373Z,91.90
2023-07-20T02:17:37.225Z,91.80
2023-07-20T02:17:46.655Z,91.70
2023-07-20T02:17:56.092Z,91.60
2023-07-20T02:18:05.423Z,91.60
2023-07-20T02:18:14.835Z,91.50
2023-07-20T02:18:24.271Z,91.50
2023-07-20T02:18:43.108Z,91.30
2023-07-20T02:18:52.537Z,91.30
2023-07-20T02:19:01.948Z,91.20
2023-07-20T02:19:11.356Z,91.20
2023-07-20T02:19:20.758Z,91.20
2023-07-20T02:19:30.177Z,91.10
2023-07-20T02:19:49.001Z,91.10
2023-07-20T02:19:58.395Z,91.00
2023-07-20T02:20:07.910Z,90.80
2023-07-20T02:20:17.357Z,90.80
2023-07-20T02:20:26.793Z,90.70
2023-07-20T02:20:36.172Z,90.60
2023-07-20T02:20:55.019Z,90.50
2023-07-20T02:21:04.436Z,90.40
2023-07-20T02:21:13.872Z,90.40
2023-07-20T02:21:23.271Z,90.30
2023-07-20T02:21:32.700Z,90.30
2023-07-20T02:21:42.188Z,90.30
2023-07-20T02:22:01.020Z,90.20
2023-07-20T02:22:10.432Z,90.20
2023-07-20T02:22:19.829Z,90.20
2023-07-20T02:22:29.240Z,90.10
2023-07-20T02:22:38.703Z,90.10
2023-07-20T02:22:48.110Z,90.10
2023-07-20T02:23:06.882Z,90.00
2023-07-20T02:23:16.327Z,90.00
2023-07-20T02:23:25.720Z,90.00
2023-07-20T02:23:35.651Z,90.00
2023-07-20T02:23:44.509Z,90.00
2023-07-20T02:23:53.913Z,90.00
2023-07-20T02:24:12.747Z,89.90
2023-07-20T02:24:22.176Z,89.80
2023-07-20T02:24:31.639Z,89.80
2023-07-20T02:24:41.038Z,89.70
2023-07-20T02:24:50.461Z,89.70
2023-07-20T02:24:59.851Z,89.60
2023-07-20T02:25:18.755Z,89.60
2023-07-20T02:25:28.209Z,89.60
2023-07-20T02:25:37.674Z,89.60
2023-07-20T02:25:47.101Z,89.50
2023-07-20T02:25:56.529Z,89.50
2023-07-20T02:26:05.921Z,89.40
2023-07-20T02:26:25.118Z,89.30
2023-07-20T02:26:34.139Z,89.20
2023-07-20T02:26:43.523Z,89.20
2023-07-20T02:26:52.922Z,89.20
2023-07-20T02:27:02.352Z,89.10
2023-07-20T02:27:11.798Z,89.00
2023-07-20T02:27:30.619Z,88.90
2023-07-20T02:27:40.082Z,88.80
2023-07-20T02:27:49.461Z,88.70
2023-07-20T02:27:58.877Z,88.70
2023-07-20T02:28:08.260Z,88.60
2023-07-20T02:28:17.718Z,88.50
2023-07-20T02:28:36.555Z,88.30
2023-07-20T02:28:45.940Z,88.30
2023-07-20T02:28:55.330Z,88.20
2023-07-20T02:29:04.736Z,88.10
2023-07-20T02:29:14.498Z,88.10
2023-07-20T02:29:23.942Z,88.00
2023-07-20T02:29:42.817Z,88.00
2023-07-20T02:29:52.207Z,87.90
2023-07-20T02:30:01.616Z,87.90
2023-07-20T02:30:11.030Z,87.90
2023-07-20T02:30:20.427Z,87.70
2023-07-20T02:30:29.980Z,87.70
2023-07-20T02:30:48.830Z,87.60
2023-07-20T02:30:58.290Z,87.50
2023-07-20T02:31:07.720Z,87.70